createdAt,value
2019-03-26T00:00:29.642Z,4.23
2019-03-26T00:03:00.237Z,3.70
2019-03-26T00:05:30.864Z,3.97
2019-03-26T00:08:01.475Z,4.37
2019-03-26T00:10:32.077Z,3.80
2019-03-26T00:13:02.709Z,3.90
2019-03-26T00:15:33.331Z,3.57
2019-03-26T00:18:04.014Z,3.93
2019-03-26T00:20:34.704Z,4.07
2019-03-26T00:23:05.307Z,4.00
2019-03-26T00:25:36.832Z,3.63
2019-03-26T00:28:07.454Z,3.90
2019-03-26T00:30:38.761Z,3.37
2019-03-26T00:33:09.503Z,3.60
2019-03-26T00:35:40.207Z,3.70
2019-03-26T00:38:10.821Z,3.73
2019-03-26T00:40:44.073Z,3.83
2019-03-26T00:43:18.093Z,3.40
2019-03-26T00:45:48.776Z,4.10
2019-03-26T00:48:19.339Z,3.67
2019-03-26T00:50:49.956Z,3.33
2019-03-26T00:53:20.542Z,3.23
2019-03-26T00:55:51.211Z,3.13
2019-03-26T00:58:21.777Z,3.50
2019-03-26T01:00:52.457Z,3.47
2019-03-26T01:03:23.113Z,3.20
2019-03-26T01:05:53.896Z,3.73
2019-03-26T01:08:24.536Z,3.20
2019-03-26T01:10:55.213Z,3.43
2019-03-26T01:13:25.863Z,2.73
2019-03-26T01:15:56.456Z,3.10
2019-03-26T01:18:27.089Z,2.80
2019-03-26T01:20:57.696Z,3.00
2019-03-26T01:23:28.280Z,3.03
2019-03-26T01:25:58.879Z,3.13
2019-03-26T01:28:29.445Z,3.77
2019-03-26T01:31:00.104Z,3.07
2019-03-26T01:33:30.680Z,2.90
2019-03-26T01:36:01.277Z,3.07
2019-03-26T01:38:31.843Z,3.10
2019-03-26T01:41:02.541Z,2.97
2019-03-26T01:43:33.360Z,3.53
2019-03-26T01:46:04.307Z,2.90
2019-03-26T01:48:34.879Z,2.93
2019-03-26T01:51:05.473Z,3.00
2019-03-26T01:53:36.042Z,3.40
2019-03-26T01:56:06.645Z,3.30
2019-03-26T01:58:37.221Z,3.00
2019-03-26T02:01:07.830Z,2.83
2019-03-26T02:03:38.385Z,3.33
2019-03-26T02:06:09.009Z,2.90
2019-03-26T02:08:39.659Z,3.23
2019-03-26T02:11:10.727Z,3.30
2019-03-26T02:13:44.377Z,3.23
2019-03-26T02:16:15.063Z,3.40
2019-03-26T02:18:45.744Z,3.73
2019-03-26T02:21:27.777Z,3.60
2019-03-26T02:23:58.384Z,3.13
2019-03-26T02:26:29.008Z,3.03
2019-03-26T02:28:59.675Z,3.97
2019-03-26T02:31:30.305Z,3.80
2019-03-26T02:34:00.938Z,3.23
2019-03-26T02:36:31.584Z,3.47
2019-03-26T02:39:02.791Z,3.30
2019-03-26T02:41:37.459Z,3.80
2019-03-26T02:44:05.735Z,3.70
2019-03-26T02:46:36.465Z,3.87
2019-03-26T02:49:08.791Z,3.50
2019-03-26T02:51:39.576Z,3.70
2019-03-26T02:54:10.206Z,3.57
2019-03-26T02:56:40.803Z,3.90
2019-03-26T02:59:22.602Z,3.47
2019-03-26T03:01:53.188Z,3.60
2019-03-26T03:04:23.847Z,3.70
2019-03-26T03:06:54.589Z,3.47
2019-03-26T03:09:25.179Z,3.50
2019-03-26T03:11:55.945Z,3.77
2019-03-26T03:14:30.266Z,3.70
2019-03-26T03:17:01.019Z,3.37
2019-03-26T03:19:31.597Z,3.73
2019-03-26T03:22:02.210Z,3.57
2019-03-26T03:24:32.946Z,3.03
2019-03-26T03:27:04.151Z,3.20
2019-03-26T03:29:34.802Z,3.63
2019-03-26T03:32:08.306Z,2.97
2019-03-26T03:34:38.890Z,3.27
2019-03-26T03:37:09.542Z,3.20
2019-03-26T03:39:40.102Z,3.33
2019-03-26T03:42:10.708Z,3.40
2019-03-26T03:44:41.318Z,3.30
2019-03-26T03:47:13.961Z,3.33
2019-03-26T03:49:45.722Z,3.20
2019-03-26T03:52:17.968Z,2.90
2019-03-26T03:54:51.082Z,3.00
2019-03-26T03:57:23.453Z,2.77
2019-03-26T03:59:56.257Z,3.03
2019-03-26T04:02:27.210Z,2.73
2019-03-26T04:04:57.886Z,2.87
2019-03-26T04:07:28.561Z,2.83
2019-03-26T04:09:59.593Z,2.60
2019-03-26T04:12:30.247Z,2.60
2019-03-26T04:15:00.853Z,2.80
2019-03-26T04:17:31.521Z,2.40
2019-03-26T04:20:02.147Z,2.53
2019-03-26T04:22:33.082Z,2.77
2019-03-26T04:25:03.791Z,2.73
2019-03-26T04:27:37.072Z,2.67
2019-03-26T04:30:08.366Z,3.07
2019-03-26T04:32:40.661Z,2.80
2019-03-26T04:35:11.699Z,3.37
2019-03-26T04:37:42.329Z,3.03
2019-03-26T04:40:12.988Z,2.80
2019-03-26T04:42:43.572Z,2.37
2019-03-26T04:45:14.202Z,2.57
2019-03-26T04:47:44.894Z,2.83
2019-03-26T04:50:15.545Z,2.27
2019-03-26T04:52:46.236Z,2.90
2019-03-26T04:55:16.906Z,2.50
2019-03-26T04:57:47.580Z,2.57
2019-03-26T05:00:21.369Z,2.37
2019-03-26T05:02:52.060Z,2.60
2019-03-26T05:05:23.958Z,2.47
2019-03-26T05:07:57.467Z,2.57
2019-03-26T05:10:28.429Z,2.30
2019-03-26T05:12:59.044Z,2.33
2019-03-26T05:15:29.705Z,2.80
2019-03-26T05:18:19.096Z,2.77
2019-03-26T05:20:49.668Z,3.03
2019-03-26T05:23:20.292Z,3.33
2019-03-26T05:25:50.864Z,2.93
2019-03-26T05:28:21.542Z,2.87
2019-03-26T05:30:52.104Z,2.97
2019-03-26T05:33:22.797Z,3.00
2019-03-26T05:35:53.800Z,2.90
2019-03-26T05:38:27.566Z,3.03
2019-03-26T05:40:58.248Z,3.00
2019-03-26T05:43:28.871Z,2.70
2019-03-26T05:45:59.527Z,2.63
2019-03-26T05:48:30.185Z,2.97
2019-03-26T05:51:00.890Z,3.33
2019-03-26T05:53:31.509Z,3.60
2019-03-26T05:56:03.861Z,3.40
2019-03-26T05:58:34.559Z,3.50
2019-03-26T06:01:05.295Z,3.60
2019-03-26T06:03:36.088Z,4.30
2019-03-26T06:06:06.703Z,4.30
2019-03-26T06:08:37.830Z,3.50
2019-03-26T06:11:10.380Z,3.10
2019-03-26T06:13:41.119Z,3.00
2019-03-26T06:16:11.792Z,3.23
2019-03-26T06:18:42.419Z,3.03
2019-03-26T06:21:13.012Z,3.10
2019-03-26T06:23:43.659Z,3.07
2019-03-26T06:26:14.377Z,3.17
2019-03-26T06:28:45.200Z,3.03
2019-03-26T06:31:15.811Z,3.17
2019-03-26T06:33:46.782Z,3.60
2019-03-26T06:36:17.663Z,4.17
2019-03-26T06:38:48.278Z,3.53
2019-03-26T06:41:19.190Z,3.93
2019-03-26T06:43:49.921Z,4.33
2019-03-26T06:46:20.585Z,4.20
2019-03-26T06:48:51.328Z,3.67
2019-03-26T06:51:22.102Z,4.00
2019-03-26T06:53:52.854Z,3.73
2019-03-26T06:56:23.609Z,3.97
2019-03-26T06:58:54.236Z,4.30
2019-03-26T07:01:26.346Z,3.90
2019-03-26T07:03:57.482Z,3.57
2019-03-26T07:06:28.096Z,3.93
2019-03-26T07:08:58.717Z,4.70
2019-03-26T07:11:29.472Z,4.87
2019-03-26T07:14:00.521Z,4.10
2019-03-26T07:16:31.133Z,3.80
2019-03-26T07:19:01.878Z,3.97
2019-03-26T07:21:32.574Z,3.90
2019-03-26T07:24:05.163Z,4.60
2019-03-26T07:26:35.965Z,4.10
2019-03-26T07:29:09.505Z,3.90
2019-03-26T07:31:42.902Z,4.07
2019-03-26T07:34:13.519Z,4.50
2019-03-26T07:36:44.146Z,4.20
2019-03-26T07:39:14.987Z,4.10
2019-03-26T07:41:45.669Z,4.50
2019-03-26T07:44:16.329Z,4.70
2019-03-26T07:46:47.077Z,4.60
2019-03-26T07:49:19.905Z,4.47
2019-03-26T07:51:54.722Z,4.30
2019-03-26T07:54:26.523Z,3.77
2019-03-26T07:56:57.671Z,4.20
2019-03-26T07:59:28.370Z,4.30
2019-03-26T08:01:59.047Z,4.70
2019-03-26T08:04:29.649Z,4.43
2019-03-26T08:07:00.264Z,4.13
2019-03-26T08:09:31.827Z,4.50
2019-03-26T08:12:02.706Z,4.07
2019-03-26T08:14:33.405Z,4.30
2019-03-26T08:17:04.082Z,4.93
2019-03-26T08:19:34.745Z,4.10
2019-03-26T08:22:05.478Z,3.83
2019-03-26T08:24:36.187Z,3.70
2019-03-26T08:27:06.802Z,3.50
2019-03-26T08:29:37.702Z,3.17
2019-03-26T08:32:10.983Z,3.83
2019-03-26T08:34:41.621Z,4.40
2019-03-26T08:37:12.212Z,3.30
2019-03-26T08:39:42.834Z,3.77
2019-03-26T08:42:13.426Z,4.00
2019-03-26T08:44:44.242Z,4.03
2019-03-26T08:47:16.738Z,3.67
2019-03-26T08:49:47.387Z,3.00
2019-03-26T08:52:18.095Z,3.20
2019-03-26T08:54:59.629Z,3.63
2019-03-26T08:57:30.337Z,3.63
2019-03-26T09:00:01.000Z,3.40
2019-03-26T09:02:32.214Z,2.93
2019-03-26T09:05:03.576Z,3.10
2019-03-26T09:07:34.189Z,3.87
2019-03-26T09:10:05.479Z,4.77
2019-03-26T09:12:39.245Z,4.77
2019-03-26T09:15:09.384Z,4.00
2019-03-26T09:17:44.024Z,4.37
2019-03-26T09:20:13.751Z,4.43
2019-03-26T09:22:44.366Z,4.17
2019-03-26T09:25:15.300Z,5.80
2019-03-26T09:27:45.901Z,4.77
2019-03-26T09:30:16.895Z,4.43
2019-03-26T09:32:47.822Z,4.80
2019-03-26T09:35:20.882Z,4.67
2019-03-26T09:37:53.940Z,5.67
2019-03-26T09:40:24.969Z,4.43
2019-03-26T09:42:55.734Z,5.17
2019-03-26T09:45:26.462Z,4.87
2019-03-26T09:47:57.336Z,5.43
2019-03-26T09:50:37.753Z,4.70
2019-03-26T09:53:09.605Z,4.30
2019-03-26T09:55:40.957Z,4.23
2019-03-26T09:58:11.599Z,4.60
2019-03-26T10:00:43.153Z,4.60
2019-03-26T10:03:14.177Z,5.10
2019-03-26T10:05:44.807Z,5.07
2019-03-26T10:08:18.672Z,4.60
2019-03-26T10:10:49.593Z,4.50
2019-03-26T10:13:20.279Z,4.30
2019-03-26T10:15:51.127Z,4.60
2019-03-26T10:18:21.959Z,5.67
2019-03-26T10:20:55.578Z,4.87
2019-03-26T10:23:26.604Z,4.63
2019-03-26T10:25:57.257Z,4.20
2019-03-26T10:28:28.076Z,3.70
2019-03-26T10:30:58.743Z,3.80
2019-03-26T10:33:29.378Z,3.70
2019-03-26T10:36:02.218Z,3.80
2019-03-26T10:38:32.886Z,3.60
2019-03-26T10:41:04.399Z,3.70
2019-03-26T10:43:34.987Z,3.37
2019-03-26T10:46:05.889Z,3.57
2019-03-26T10:48:36.584Z,3.80
2019-03-26T10:51:07.309Z,3.87
2019-03-26T10:53:37.987Z,4.50
2019-03-26T10:56:08.804Z,3.73
2019-03-26T10:58:39.418Z,3.80
2019-03-26T11:01:10.286Z,4.10
2019-03-26T11:03:40.922Z,3.80
2019-03-26T11:06:11.838Z,3.37
2019-03-26T11:08:45.166Z,3.63
2019-03-26T11:11:15.586Z,3.47
2019-03-26T11:13:49.523Z,3.67
2019-03-26T11:16:20.309Z,4.50
2019-03-26T11:18:52.042Z,4.17
2019-03-26T11:21:23.268Z,4.30
2019-03-26T11:23:53.953Z,4.20
2019-03-26T11:26:24.621Z,4.00
2019-03-26T11:28:55.318Z,4.30
2019-03-26T11:31:29.981Z,4.60
2019-03-26T11:33:59.584Z,4.93
2019-03-26T11:36:30.228Z,4.37
2019-03-26T11:39:00.921Z,4.10
2019-03-26T11:41:31.754Z,4.37
2019-03-26T11:44:04.695Z,3.87
2019-03-26T11:46:34.871Z,4.07
2019-03-26T11:49:07.413Z,4.20
2019-03-26T11:51:38.257Z,3.63
2019-03-26T11:54:09.059Z,4.03
2019-03-26T11:56:39.707Z,4.07
2019-03-26T11:59:10.390Z,4.40
2019-03-26T12:01:41.233Z,4.50
2019-03-26T12:04:12.132Z,4.17
2019-03-26T12:06:42.789Z,3.67
2019-03-26T12:09:13.607Z,3.30
2019-03-26T12:11:44.330Z,3.90
2019-03-26T12:14:15.971Z,3.50
2019-03-26T12:16:46.982Z,3.47
2019-03-26T12:19:17.688Z,3.40
2019-03-26T12:21:49.915Z,2.90
2019-03-26T12:24:21.133Z,2.83
2019-03-26T12:26:52.037Z,2.63
2019-03-26T12:29:22.678Z,2.77
2019-03-26T12:31:53.404Z,2.40
2019-03-26T12:34:26.432Z,2.90
2019-03-26T12:36:58.819Z,2.90
2019-03-26T12:39:29.588Z,2.67
2019-03-26T12:42:19.110Z,2.87
2019-03-26T12:44:49.685Z,2.70
2019-03-26T12:47:20.888Z,2.80
2019-03-26T12:49:51.545Z,2.53
2019-03-26T12:52:22.589Z,2.23
2019-03-26T12:54:53.296Z,2.00
2019-03-26T12:57:23.926Z,2.03
2019-03-26T12:59:54.642Z,2.20
2019-03-26T13:02:25.315Z,2.33
2019-03-26T13:04:57.325Z,2.23
2019-03-26T13:07:27.990Z,3.17
2019-03-26T13:10:07.871Z,2.50
2019-03-26T13:12:31.288Z,2.60
2019-03-26T13:15:01.987Z,2.57
2019-03-26T13:17:32.873Z,2.67
2019-03-26T13:20:04.106Z,2.30
2019-03-26T13:22:35.695Z,2.80
2019-03-26T13:25:06.778Z,3.00
2019-03-26T13:27:37.486Z,2.70
2019-03-26T13:30:11.186Z,3.00
2019-03-26T13:32:41.889Z,3.30
2019-03-26T13:35:12.883Z,3.57
2019-03-26T13:37:43.892Z,3.17
2019-03-26T13:40:26.496Z,3.10
2019-03-26T13:42:47.567Z,3.23
2019-03-26T13:45:22.129Z,3.50
2019-03-26T13:47:52.828Z,3.47
2019-03-26T13:50:23.391Z,2.93
2019-03-26T13:52:54.063Z,3.23
2019-03-26T13:55:24.962Z,3.40
2019-03-26T13:57:55.572Z,3.50
2019-03-26T14:00:36.713Z,3.23
2019-03-26T14:03:07.948Z,3.50
2019-03-26T14:05:40.925Z,3.50
2019-03-26T14:08:11.972Z,3.97
2019-03-26T14:10:42.589Z,3.60
2019-03-26T14:13:13.439Z,3.67
2019-03-26T14:15:44.163Z,3.57
2019-03-26T14:18:14.800Z,3.73
2019-03-26T14:20:45.599Z,4.20
2019-03-26T14:23:18.937Z,4.07
2019-03-26T14:25:50.336Z,4.20
2019-03-26T14:28:21.086Z,4.40
2019-03-26T14:30:51.754Z,4.13
2019-03-26T14:33:22.407Z,4.60
2019-03-26T14:35:53.056Z,3.80
2019-03-26T14:38:23.787Z,4.30
2019-03-26T14:40:55.595Z,4.20
2019-03-26T14:43:26.502Z,4.50
2019-03-26T14:45:57.462Z,4.67
2019-03-26T14:48:28.212Z,4.80
2019-03-26T14:50:58.782Z,3.83
2019-03-26T14:53:31.165Z,4.63
2019-03-26T14:56:01.761Z,4.40
2019-03-26T14:58:32.629Z,4.73
2019-03-26T15:01:03.295Z,4.10
2019-03-26T15:03:34.022Z,5.07
2019-03-26T15:06:04.822Z,4.43
2019-03-26T15:08:35.637Z,4.37
2019-03-26T15:11:08.195Z,4.43
2019-03-26T15:13:38.949Z,4.10
2019-03-26T15:16:09.550Z,4.07
2019-03-26T15:18:40.367Z,4.67
2019-03-26T15:21:14.222Z,4.30
2019-03-26T15:23:44.969Z,4.07
2019-03-26T15:26:17.330Z,3.90
2019-03-26T15:28:48.490Z,4.10
2019-03-26T15:31:22.510Z,4.20
2019-03-26T15:33:55.589Z,3.57
2019-03-26T15:36:26.191Z,4.50
2019-03-26T15:38:56.929Z,4.13
2019-03-26T15:41:30.157Z,3.90
2019-03-26T15:43:59.989Z,3.97
2019-03-26T15:49:12.297Z,4.10
2019-03-26T15:51:43.054Z,4.83
2019-03-26T15:54:14.351Z,4.73
2019-03-26T15:56:45.085Z,4.63
2019-03-26T15:59:15.767Z,4.57
2019-03-26T16:01:46.461Z,4.40
2019-03-26T16:04:17.836Z,4.53
2019-03-26T16:06:48.598Z,4.80
2019-03-26T16:09:22.705Z,4.60
2019-03-26T16:11:55.155Z,4.40
2019-03-26T16:14:28.180Z,4.50
2019-03-26T16:16:58.450Z,4.63
2019-03-26T16:19:32.747Z,5.03
2019-03-26T16:22:02.249Z,4.60
2019-03-26T16:24:33.026Z,5.20
2019-03-26T16:27:03.715Z,4.70
2019-03-26T16:29:35.812Z,4.67
2019-03-26T16:32:08.157Z,4.97
2019-03-26T16:34:39.142Z,5.23
2019-03-26T16:37:09.948Z,4.87
2019-03-26T16:39:40.824Z,4.97
2019-03-26T16:42:11.542Z,4.80
2019-03-26T16:44:42.355Z,5.20
2019-03-26T16:47:13.035Z,5.60
2019-03-26T16:49:43.734Z,5.50
2019-03-26T16:52:14.435Z,5.43
2019-03-26T16:54:45.180Z,5.30
2019-03-26T16:57:15.944Z,6.10
2019-03-26T16:59:46.739Z,5.53
2019-03-26T17:02:17.526Z,5.50
2019-03-26T17:04:48.167Z,5.40
2019-03-26T17:07:18.856Z,5.70
2019-03-26T17:09:49.619Z,7.00
2019-03-26T17:12:20.391Z,7.80
2019-03-26T17:14:51.034Z,7.90
2019-03-26T17:17:21.645Z,8.17
2019-03-26T17:19:53.539Z,7.77
2019-03-26T17:22:24.231Z,7.73
2019-03-26T17:24:54.967Z,8.47
2019-03-26T17:27:28.898Z,8.57
2019-03-26T17:29:58.396Z,9.20
2019-03-26T17:32:29.448Z,8.97
2019-03-26T17:35:00.341Z,8.10
2019-03-26T17:37:31.157Z,7.47
2019-03-26T17:40:01.814Z,7.70
2019-03-26T17:42:33.610Z,8.40
2019-03-26T17:45:05.543Z,8.07
2019-03-26T17:47:36.200Z,7.80
2019-03-26T17:50:07.617Z,7.60
2019-03-26T17:52:38.951Z,7.63
2019-03-26T17:55:09.983Z,8.00
2019-03-26T17:57:40.597Z,8.57
2019-03-26T18:00:14.273Z,9.00
2019-03-26T18:02:44.982Z,9.60
2019-03-26T18:05:26.739Z,9.70
2019-03-26T18:07:57.886Z,10.57
2019-03-26T18:10:28.650Z,10.33
2019-03-26T18:12:59.431Z,10.83
2019-03-26T18:15:30.412Z,11.67
2019-03-26T18:18:01.038Z,11.33
2019-03-26T18:20:33.063Z,12.00
2019-03-26T18:23:04.006Z,12.33
2019-03-26T18:25:34.777Z,12.43
2019-03-26T18:28:05.771Z,12.40
2019-03-26T18:30:36.593Z,11.80
2019-03-26T18:33:07.439Z,12.37
2019-03-26T18:35:40.578Z,12.50
2019-03-26T18:38:11.197Z,12.30
2019-03-26T18:40:42.351Z,12.40
2019-03-26T18:43:13.126Z,12.03
2019-03-26T18:45:43.802Z,12.50
2019-03-26T18:48:14.523Z,11.57
2019-03-26T18:50:45.519Z,11.70
2019-03-26T18:53:16.204Z,11.63
2019-03-26T18:55:47.020Z,12.40
2019-03-26T18:58:20.783Z,11.17
2019-03-26T19:00:51.492Z,11.07
2019-03-26T19:03:22.352Z,11.87
2019-03-26T19:05:52.999Z,12.40
2019-03-26T19:08:23.758Z,12.63
2019-03-26T19:10:57.388Z,12.07
2019-03-26T19:13:28.155Z,13.30
2019-03-26T19:15:58.869Z,13.57
2019-03-26T19:18:29.581Z,13.60
2019-03-26T19:21:02.306Z,13.63
2019-03-26T19:23:33.458Z,14.20
2019-03-26T19:26:04.236Z,14.13
2019-03-26T19:28:35.174Z,13.40
2019-03-26T19:31:07.530Z,13.37
2019-03-26T19:33:38.195Z,13.57
2019-03-26T19:36:09.044Z,14.40
2019-03-26T19:38:39.766Z,14.90
2019-03-26T19:41:11.055Z,14.77
2019-03-26T19:43:41.685Z,15.03
2019-03-26T19:46:12.468Z,14.97
2019-03-26T19:48:45.606Z,14.77
2019-03-26T19:51:16.262Z,14.37
2019-03-26T19:53:46.897Z,14.77
2019-03-26T19:56:17.556Z,15.40
2019-03-26T19:58:48.689Z,14.60
2019-03-26T20:01:19.340Z,15.20
2019-03-26T20:03:53.504Z,13.67
2019-03-26T20:06:24.011Z,13.03
2019-03-26T20:08:57.506Z,12.93
2019-03-26T20:11:28.268Z,12.93
2019-03-26T20:13:58.964Z,13.20
2019-03-26T20:16:41.325Z,12.87
2019-03-26T20:19:03.247Z,12.90
2019-03-26T20:21:34.385Z,12.63
2019-03-26T20:24:06.368Z,12.97
2019-03-26T20:26:38.851Z,13.33
2019-03-26T20:29:11.426Z,14.57
2019-03-26T20:31:44.129Z,13.00
2019-03-26T20:34:14.853Z,13.27
2019-03-26T20:36:45.574Z,13.87
2019-03-26T20:39:20.200Z,14.07
2019-03-26T20:41:50.912Z,13.37
2019-03-26T20:44:22.596Z,14.37
2019-03-26T20:46:54.353Z,14.13
2019-03-26T20:49:38.758Z,15.63
2019-03-26T20:52:10.377Z,14.93
2019-03-26T20:54:41.129Z,14.83
2019-03-26T20:57:11.741Z,15.17
2019-03-26T20:59:42.594Z,14.87
2019-03-26T21:02:13.280Z,15.00
2019-03-26T21:04:44.182Z,14.90
2019-03-26T21:07:17.397Z,14.60
2019-03-26T21:09:48.113Z,14.00
2019-03-26T21:12:19.146Z,15.27
2019-03-26T21:14:49.898Z,14.13
2019-03-26T21:17:20.595Z,16.40
2019-03-26T21:19:51.273Z,14.33
2019-03-26T21:22:22.131Z,15.17
2019-03-26T21:24:52.734Z,15.27
2019-03-26T21:27:23.442Z,17.03
2019-03-26T21:29:54.327Z,16.17
2019-03-26T21:32:24.957Z,15.60
2019-03-26T21:34:56.096Z,15.50
2019-03-26T21:37:28.557Z,16.23
2019-03-26T21:40:01.753Z,15.93
2019-03-26T21:42:32.443Z,16.80
2019-03-26T21:45:03.558Z,17.50
2019-03-26T21:47:34.235Z,15.37
2019-03-26T21:50:05.423Z,14.97
2019-03-26T21:52:36.062Z,17.30
2019-03-26T21:55:07.765Z,16.60
2019-03-26T21:57:38.635Z,16.13
2019-03-26T22:00:10.534Z,17.47
2019-03-26T22:02:41.231Z,16.87
2019-03-26T22:05:12.206Z,16.20
2019-03-26T22:07:42.845Z,16.33
2019-03-26T22:10:14.014Z,15.37
2019-03-26T22:12:44.722Z,18.63
2019-03-26T22:15:17.491Z,18.83
2019-03-26T22:17:50.947Z,19.10
2019-03-26T22:20:21.561Z,20.37
2019-03-26T22:22:52.251Z,19.90
2019-03-26T22:25:23.179Z,21.37
2019-03-26T22:27:53.843Z,21.20
2019-03-26T22:30:24.466Z,21.03
2019-03-26T22:32:57.771Z,20.33
2019-03-26T22:35:28.838Z,19.90
2019-03-26T22:37:59.511Z,19.97
2019-03-26T22:40:30.118Z,20.07
2019-03-26T22:43:01.044Z,18.83
2019-03-26T22:45:31.877Z,19.57
2019-03-26T22:48:02.562Z,18.87
2019-03-26T22:50:33.165Z,20.03
2019-03-26T22:53:03.810Z,19.60
2019-03-26T22:55:34.620Z,21.00
2019-03-26T22:58:05.256Z,20.40
2019-03-26T23:00:37.389Z,21.93
2019-03-26T23:03:08.061Z,20.53
2019-03-26T23:05:38.873Z,20.80
2019-03-26T23:08:09.637Z,22.63
2019-03-26T23:10:40.267Z,21.83
2019-03-26T23:13:13.906Z,22.33
2019-03-26T23:15:44.540Z,21.87
2019-03-26T23:18:15.317Z,21.83
2019-03-26T23:20:46.007Z,21.83
2019-03-26T23:23:16.723Z,20.63
2019-03-26T23:25:48.869Z,21.17
2019-03-26T23:28:19.499Z,20.07
2019-03-26T23:30:50.707Z,21.00
2019-03-26T23:33:21.466Z,19.93
2019-03-26T23:35:53.627Z,19.70
2019-03-26T23:38:24.229Z,21.70
2019-03-26T23:40:55.938Z,21.83
2019-03-26T23:43:26.881Z,21.77
2019-03-26T23:45:57.602Z,21.00
2019-03-26T23:48:30.906Z,21.50
2019-03-26T23:51:01.105Z,20.47
2019-03-26T23:53:34.614Z,20.40
2019-03-26T23:56:05.442Z,19.50
2019-03-26T23:58:36.160Z,20.90
